createdAt,value
2018-01-15T00:02:21.656Z,14.52
2018-01-15T00:04:50.093Z,15.92
2018-01-15T00:07:17.609Z,13.43
2018-01-15T00:09:45.830Z,14.27
2018-01-15T00:12:17.368Z,12.27
2018-01-15T00:14:45.312Z,14.55
2018-01-15T00:17:12.773Z,14.60
2018-01-15T00:19:40.449Z,14.70
2018-01-15T00:22:07.927Z,14.97
2018-01-15T00:24:35.389Z,13.80
2018-01-15T00:27:02.839Z,12.77
2018-01-15T00:29:30.328Z,14.73
2018-01-15T00:31:58.823Z,14.13
2018-01-15T00:34:26.280Z,14.23
2018-01-15T00:36:53.756Z,14.73
2018-01-15T00:39:21.484Z,12.73
2018-01-15T00:41:50.455Z,12.97
2018-01-15T00:44:18.872Z,12.70
2018-01-15T00:46:46.350Z,13.90
2018-01-15T00:49:13.808Z,12.50
2018-01-15T00:51:41.288Z,13.57
2018-01-15T00:54:08.745Z,12.77
2018-01-15T00:56:37.069Z,12.75
2018-01-15T00:59:04.512Z,14.60
2018-01-15T01:01:31.994Z,12.00
2018-01-15T01:03:59.520Z,12.75
2018-01-15T01:06:26.989Z,14.07
2018-01-15T01:08:54.454Z,12.53
2018-01-15T01:11:22.117Z,13.30
2018-01-15T01:13:50.551Z,13.00
2018-01-15T01:16:17.994Z,14.02
2018-01-15T01:18:45.602Z,14.67
2018-01-15T01:21:13.093Z,14.00
2018-01-15T01:23:40.561Z,12.83
2018-01-15T01:26:08.040Z,14.20
2018-01-15T01:28:35.520Z,12.25
2018-01-15T01:31:02.997Z,12.93
2018-01-15T01:33:30.484Z,12.60
2018-01-15T01:35:57.940Z,11.90
2018-01-15T01:38:25.414Z,12.43
2018-01-15T01:40:54.333Z,13.10
2018-01-15T01:43:21.807Z,12.40
2018-01-15T01:45:49.265Z,11.80
2018-01-15T01:48:17.053Z,10.20
2018-01-15T01:50:44.512Z,12.55
2018-01-15T01:53:12.669Z,12.00
2018-01-15T01:55:40.161Z,11.93
2018-01-15T01:58:07.638Z,11.27
2018-01-15T02:00:35.080Z,12.27
2018-01-15T02:03:02.588Z,12.50
2018-01-15T02:05:30.025Z,11.27
2018-01-15T02:07:57.527Z,12.30
2018-01-15T02:10:24.987Z,10.37
2018-01-15T02:12:52.484Z,10.30
2018-01-15T02:15:19.940Z,11.23
2018-01-15T02:17:47.416Z,10.17
2018-01-15T02:20:16.716Z,11.70
2018-01-15T02:22:44.156Z,10.00
2018-01-15T02:25:11.609Z,11.43
2018-01-15T02:27:40.039Z,12.32
2018-01-15T02:30:07.801Z,10.65
2018-01-15T02:32:35.260Z,12.20
2018-01-15T02:35:02.733Z,10.40
2018-01-15T02:37:30.218Z,9.67
2018-01-15T02:39:57.751Z,10.37
2018-01-15T02:42:25.239Z,12.23
2018-01-15T02:44:52.714Z,9.53
2018-01-15T02:47:20.185Z,9.25
2018-01-15T02:49:49.360Z,10.23
2018-01-15T02:52:16.805Z,9.90
2018-01-15T02:54:44.544Z,10.63
2018-01-15T02:57:12.067Z,9.60
2018-01-15T02:59:39.564Z,10.20
2018-01-15T03:02:08.409Z,10.63
2018-01-15T03:04:35.885Z,10.80
2018-01-15T03:07:03.340Z,11.23
2018-01-15T03:09:31.112Z,11.13
2018-01-15T03:11:58.592Z,10.67
2018-01-15T03:14:29.734Z,10.25
2018-01-15T03:16:57.196Z,10.35
2018-01-15T03:19:24.645Z,11.40
2018-01-15T03:21:52.388Z,11.37
2018-01-15T03:24:19.870Z,11.10
2018-01-15T03:26:47.333Z,10.17
2018-01-15T03:29:14.776Z,10.57
2018-01-15T03:31:45.995Z,10.23
2018-01-15T03:34:13.537Z,11.47
2018-01-15T03:36:42.033Z,11.23
2018-01-15T03:39:09.516Z,11.95
2018-01-15T03:41:36.969Z,11.03
2018-01-15T03:44:04.450Z,10.33
2018-01-15T03:46:39.540Z,12.57
2018-01-15T03:49:07.300Z,13.80
2018-01-15T03:51:34.846Z,10.93
2018-01-15T03:54:02.320Z,11.93
2018-01-15T03:56:29.772Z,12.07
2018-01-15T03:58:57.244Z,14.63
2018-01-15T04:01:24.749Z,15.27
2018-01-15T04:03:52.244Z,13.13
2018-01-15T04:06:20.368Z,11.30
2018-01-15T04:08:47.834Z,13.10
2018-01-15T04:11:15.276Z,12.63
2018-01-15T04:13:42.805Z,11.55
2018-01-15T04:16:10.270Z,11.25
2018-01-15T04:18:37.724Z,9.83
2018-01-15T04:21:06.686Z,10.60
2018-01-15T04:23:34.148Z,12.00
2018-01-15T04:26:01.728Z,12.05
2018-01-15T04:28:29.173Z,9.13
2018-01-15T04:30:56.644Z,12.67
2018-01-15T04:33:24.213Z,11.43
2018-01-15T04:35:51.676Z,10.77
2018-01-15T04:38:19.124Z,12.10
2018-01-15T04:40:46.621Z,11.70
2018-01-15T04:43:14.082Z,11.50
2018-01-15T04:45:46.584Z,11.60
2018-01-15T04:48:14.042Z,11.83
2018-01-15T04:50:41.525Z,10.63
2018-01-15T04:53:08.992Z,12.30
2018-01-15T04:55:38.136Z,11.85
2018-01-15T04:58:05.613Z,11.70
2018-01-15T05:00:33.060Z,11.50
2018-01-15T05:03:03.685Z,10.60
2018-01-15T05:05:31.149Z,11.93
2018-01-15T05:07:58.741Z,11.30
2018-01-15T05:10:26.960Z,11.25
2018-01-15T05:12:54.610Z,12.10
2018-01-15T05:15:22.081Z,12.07
2018-01-15T05:17:52.340Z,12.17
2018-01-15T05:20:19.805Z,11.35
2018-01-15T05:22:47.276Z,12.37
2018-01-15T05:25:14.745Z,12.17
2018-01-15T05:27:42.217Z,12.00
2018-01-15T05:30:09.786Z,13.60
2018-01-15T05:32:40.473Z,13.07
2018-01-15T05:35:07.968Z,13.17
2018-01-15T05:37:35.482Z,12.15
2018-01-15T05:40:02.949Z,12.55
2018-01-15T05:42:30.429Z,12.23
2018-01-15T05:44:58.836Z,11.68
2018-01-15T05:47:29.505Z,11.80
2018-01-15T05:49:56.985Z,11.60
2018-01-15T05:52:24.966Z,11.80
2018-01-15T05:54:52.494Z,12.50
2018-01-15T05:57:19.941Z,12.57
2018-01-15T05:59:47.399Z,12.18
2018-01-15T06:02:18.544Z,11.55
2018-01-15T06:04:46.017Z,10.77
2018-01-15T06:07:15.243Z,11.75
2018-01-15T06:09:42.689Z,12.80
2018-01-15T06:12:10.213Z,13.57
2018-01-15T06:14:37.698Z,13.23
2018-01-15T06:17:05.187Z,11.33
2018-01-15T06:19:33.402Z,12.35
2018-01-15T06:22:00.872Z,11.20
2018-01-15T06:24:28.332Z,10.60
2018-01-15T06:26:55.893Z,14.90
2018-01-15T06:29:23.353Z,12.17
2018-01-15T06:31:50.797Z,11.77
2018-01-15T06:34:18.287Z,13.60
2018-01-15T06:36:45.745Z,11.67
2018-01-15T06:39:13.190Z,12.23
2018-01-15T06:41:40.650Z,11.03
2018-01-15T06:44:08.128Z,13.93
2018-01-15T06:46:36.537Z,12.62
2018-01-15T06:49:03.980Z,13.57
2018-01-15T06:51:31.686Z,13.40
2018-01-15T06:53:59.144Z,12.05
2018-01-15T06:56:26.588Z,12.02
2018-01-15T06:58:54.103Z,15.60
2018-01-15T07:01:21.676Z,13.50
2018-01-15T07:03:53.156Z,12.52
2018-01-15T07:06:20.720Z,13.23
2018-01-15T07:08:48.385Z,14.30
2018-01-15T07:11:15.861Z,11.93
2018-01-15T07:13:43.347Z,13.60
2018-01-15T07:16:10.832Z,14.43
2018-01-15T07:18:41.396Z,13.40
2018-01-15T07:21:09.060Z,14.40
2018-01-15T07:23:37.272Z,13.60
2018-01-15T07:26:04.876Z,13.83
2018-01-15T07:28:32.376Z,12.88
2018-01-15T07:31:00.036Z,13.07
2018-01-15T07:33:27.505Z,12.13
2018-01-15T07:35:55.017Z,13.20
2018-01-15T07:38:22.641Z,13.13
2018-01-15T07:40:50.246Z,14.57
2018-01-15T07:43:19.018Z,13.57
2018-01-15T07:45:46.472Z,14.20
2018-01-15T07:48:13.948Z,13.05
2018-01-15T07:50:41.422Z,12.33
2018-01-15T07:53:09.665Z,13.63
2018-01-15T07:55:37.666Z,13.23
2018-01-15T07:58:05.164Z,13.57
2018-01-15T08:00:32.624Z,13.30
2018-01-15T08:03:00.141Z,12.57
2018-01-15T08:05:27.619Z,14.23
2018-01-15T08:07:55.456Z,14.10
2018-01-15T08:10:22.940Z,15.30
2018-01-15T08:12:51.154Z,14.77
2018-01-15T08:15:18.634Z,14.48
2018-01-15T08:17:46.120Z,13.63
2018-01-15T08:20:13.572Z,15.40
2018-01-15T08:22:41.811Z,15.20
2018-01-15T08:25:09.473Z,14.13
2018-01-15T08:27:36.956Z,14.13
2018-01-15T08:30:05.969Z,13.90
2018-01-15T08:32:33.410Z,14.20
2018-01-15T08:35:04.000Z,13.10
2018-01-15T08:37:31.512Z,14.47
2018-01-15T08:39:59.804Z,17.15
2018-01-15T08:42:27.292Z,15.70
2018-01-15T08:44:54.766Z,15.23
2018-01-15T08:47:22.244Z,14.90
2018-01-15T08:49:52.980Z,14.60
2018-01-15T08:52:20.489Z,12.27
2018-01-15T08:54:47.968Z,13.80
2018-01-15T08:57:15.429Z,16.37
2018-01-15T08:59:43.894Z,14.50
2018-01-15T09:02:11.489Z,15.48
2018-01-15T09:04:38.969Z,15.23
2018-01-15T09:07:06.416Z,14.47
2018-01-15T09:09:34.654Z,12.83
2018-01-15T09:12:02.165Z,14.43
2018-01-15T09:14:29.621Z,14.00
2018-01-15T09:16:58.676Z,13.65
2018-01-15T09:19:26.449Z,13.60
2018-01-15T09:21:53.921Z,13.85
2018-01-15T09:24:21.384Z,13.90
2018-01-15T09:26:48.852Z,14.18
2018-01-15T09:29:16.844Z,15.02
2018-01-15T09:31:44.328Z,14.27
2018-01-15T09:34:11.785Z,13.53
2018-01-15T09:36:42.425Z,13.40
2018-01-15T09:39:09.876Z,12.48
2018-01-15T09:41:38.192Z,14.47
2018-01-15T09:44:07.141Z,13.40
2018-01-15T09:46:35.144Z,13.38
2018-01-15T09:49:02.598Z,11.83
2018-01-15T09:51:33.828Z,13.77
2018-01-15T09:54:01.368Z,13.45
2018-01-15T09:56:28.845Z,12.02
2018-01-15T09:58:56.304Z,12.57
2018-01-15T10:01:25.003Z,13.97
2018-01-15T10:03:52.488Z,13.60
2018-01-15T10:06:25.330Z,14.15
2018-01-15T10:08:52.778Z,16.67
2018-01-15T10:11:21.180Z,14.00
2018-01-15T10:13:48.637Z,14.60
2018-01-15T10:16:16.078Z,15.03
2018-01-15T10:18:43.548Z,15.00
2018-01-15T10:21:11.027Z,15.20
2018-01-15T10:23:38.511Z,13.18
2018-01-15T10:26:05.974Z,14.02
2018-01-15T10:28:33.529Z,13.10
2018-01-15T10:31:00.961Z,14.23
2018-01-15T10:33:30.128Z,12.00
2018-01-15T10:35:57.585Z,12.73
2018-01-15T10:38:25.060Z,13.53
2018-01-15T10:40:52.564Z,13.62
2018-01-15T10:43:20.009Z,14.37
2018-01-15T10:45:47.477Z,13.40
2018-01-15T10:48:15.024Z,14.35
2018-01-15T10:50:43.437Z,16.12
2018-01-15T10:53:10.905Z,13.60
2018-01-15T10:55:38.341Z,14.27
2018-01-15T10:58:05.825Z,13.93
2018-01-15T11:00:42.197Z,18.77
2018-01-15T11:03:09.706Z,14.27
2018-01-15T11:05:37.189Z,15.13
2018-01-15T11:08:04.664Z,14.70
2018-01-15T11:10:32.125Z,13.85
2018-01-15T11:12:59.622Z,14.27
2018-01-15T11:15:27.888Z,11.90
2018-01-15T11:17:55.646Z,12.50
2018-01-15T11:20:23.116Z,14.02
2018-01-15T11:22:50.589Z,13.37
2018-01-15T11:25:18.070Z,12.93
2018-01-15T11:27:45.516Z,14.98
2018-01-15T11:30:12.968Z,12.90
2018-01-15T11:32:41.372Z,14.20
2018-01-15T11:35:08.832Z,13.80
2018-01-15T11:37:40.347Z,14.43
2018-01-15T11:40:07.843Z,14.70
2018-01-15T11:42:35.320Z,15.30
2018-01-15T11:45:03.578Z,14.90
2018-01-15T11:47:31.238Z,15.43
2018-01-15T11:49:58.709Z,13.70
2018-01-15T11:52:26.172Z,13.43
2018-01-15T11:54:53.632Z,12.93
2018-01-15T11:57:21.100Z,14.40
2018-01-15T12:00:02.137Z,12.47
2018-01-15T12:02:33.064Z,13.80
2018-01-15T12:05:01.601Z,13.32
2018-01-15T12:07:29.060Z,14.47
2018-01-15T12:09:56.981Z,14.55
2018-01-15T12:12:24.468Z,15.90
2018-01-15T12:14:52.687Z,15.07
2018-01-15T12:17:20.165Z,14.70
2018-01-15T12:19:47.701Z,14.83
2018-01-15T12:22:15.181Z,14.05
2018-01-15T12:24:42.641Z,15.37
2018-01-15T12:27:11.892Z,14.27
2018-01-15T12:29:39.381Z,16.80
2018-01-15T12:32:06.825Z,15.50
2018-01-15T12:34:34.302Z,15.53
2018-01-15T12:37:01.791Z,14.87
2018-01-15T12:39:30.216Z,15.83
2018-01-15T12:41:57.660Z,13.38
2018-01-15T12:44:25.141Z,15.93
2018-01-15T12:46:52.624Z,13.50
2018-01-15T12:49:20.160Z,16.50
2018-01-15T12:51:47.608Z,13.77
2018-01-15T12:54:21.564Z,13.70
2018-01-15T12:56:49.044Z,13.25
2018-01-15T12:59:16.494Z,15.38
2018-01-15T13:01:44.988Z,14.30
2018-01-15T13:04:12.453Z,15.70
2018-01-15T13:06:52.424Z,13.70
2018-01-15T13:09:19.900Z,15.93
2018-01-15T13:11:47.361Z,15.20
2018-01-15T13:14:15.608Z,14.28
2018-01-15T13:16:43.127Z,13.90
2018-01-15T13:19:10.609Z,14.63
2018-01-15T13:21:38.066Z,13.77
2018-01-15T13:24:05.542Z,16.08
2018-01-15T13:26:33.013Z,14.82
2018-01-15T13:29:00.481Z,14.40
2018-01-15T13:31:27.948Z,13.43
2018-01-15T13:33:55.422Z,14.38
2018-01-15T13:36:22.864Z,14.00
2018-01-15T13:38:50.352Z,13.80
2018-01-15T13:41:18.640Z,15.48
2018-01-15T13:43:46.120Z,17.47
2018-01-15T13:46:13.600Z,15.37
2018-01-15T13:48:44.210Z,16.27
2018-01-15T13:51:11.738Z,13.77
2018-01-15T13:53:39.265Z,13.90
2018-01-15T13:56:06.777Z,14.93
2018-01-15T13:58:34.249Z,15.50
2018-01-15T14:01:01.696Z,15.25
2018-01-15T14:03:29.163Z,16.20
2018-01-15T14:05:58.052Z,13.95
2018-01-15T14:08:25.717Z,15.70
2018-01-15T14:10:57.305Z,15.53
2018-01-15T14:13:24.795Z,16.17
2018-01-15T14:15:52.255Z,16.27
2018-01-15T14:18:19.699Z,16.37
2018-01-15T14:20:47.166Z,14.13
2018-01-15T14:23:14.757Z,16.43
2018-01-15T14:25:46.032Z,15.20
2018-01-15T14:28:13.500Z,16.50
2018-01-15T14:30:41.908Z,15.70
2018-01-15T14:33:09.443Z,14.83
2018-01-15T14:35:37.188Z,15.03
2018-01-15T14:38:04.645Z,15.10
2018-01-15T14:40:35.696Z,15.00
2018-01-15T14:43:03.176Z,15.70
2018-01-15T14:45:30.672Z,14.30
2018-01-15T14:47:58.278Z,14.70
2018-01-15T14:50:25.757Z,14.30
2018-01-15T14:52:53.221Z,15.63
2018-01-15T14:55:20.673Z,15.73
2018-01-15T14:57:48.513Z,16.67
2018-01-15T15:00:15.968Z,14.97
2018-01-15T15:02:43.444Z,15.27
2018-01-15T15:05:10.895Z,15.70
2018-01-15T15:07:39.132Z,14.93
2018-01-15T15:10:06.632Z,17.23
2018-01-15T15:12:37.729Z,14.77
2018-01-15T15:15:05.216Z,14.93
2018-01-15T15:17:32.694Z,15.65
2018-01-15T15:20:00.164Z,14.68
2018-01-15T15:22:27.804Z,14.75
2018-01-15T15:24:55.300Z,15.77
2018-01-15T15:27:23.314Z,16.52
2018-01-15T15:29:51.550Z,15.83
2018-01-15T15:32:19.111Z,17.40
2018-01-15T15:34:46.932Z,14.83
2018-01-15T15:37:15.196Z,17.25
2018-01-15T15:39:42.677Z,15.93
2018-01-15T15:42:10.300Z,14.87
2018-01-15T15:44:37.821Z,15.63
2018-01-15T15:47:05.606Z,16.70
2018-01-15T15:49:33.050Z,16.30
2018-01-15T15:52:00.530Z,14.77
2018-01-15T15:54:27.984Z,14.82
2018-01-15T15:56:59.777Z,15.18
2018-01-15T15:59:27.237Z,14.85
2018-01-15T16:01:54.725Z,14.87
2018-01-15T16:04:22.575Z,14.70
2018-01-15T16:06:51.719Z,16.47
2018-01-15T16:09:19.213Z,16.73
2018-01-15T16:11:46.656Z,14.20
2018-01-15T16:14:16.572Z,15.17
2018-01-15T16:16:44.079Z,14.70
2018-01-15T16:19:11.519Z,15.10
2018-01-15T16:21:38.999Z,18.60
2018-01-15T16:24:06.480Z,14.87
2018-01-15T16:26:33.961Z,13.80
2018-01-15T16:29:01.433Z,15.63
2018-01-15T16:31:29.708Z,14.32
2018-01-15T16:33:57.196Z,14.87
2018-01-15T16:36:24.629Z,17.43
2018-01-15T16:38:52.134Z,13.07
2018-01-15T16:41:19.590Z,15.13
2018-01-15T16:43:47.044Z,14.77
2018-01-15T16:46:14.526Z,15.30
2018-01-15T16:48:41.985Z,14.57
2018-01-15T16:51:09.556Z,14.60
2018-01-15T16:53:37.527Z,16.95
2018-01-15T16:56:05.126Z,13.62
2018-01-15T16:58:36.009Z,14.40
2018-01-15T17:01:03.468Z,14.13
2018-01-15T17:03:31.070Z,13.17
2018-01-15T17:05:58.643Z,15.87
2018-01-15T17:08:27.023Z,13.85
2018-01-15T17:10:54.493Z,13.27
2018-01-15T17:13:29.850Z,14.68
2018-01-15T17:15:58.306Z,14.43
2018-01-15T17:18:25.777Z,15.57
2018-01-15T17:20:53.247Z,15.02
2018-01-15T17:23:20.720Z,15.00
2018-01-15T17:25:48.244Z,15.20
2018-01-15T17:28:15.754Z,14.63
2018-01-15T17:30:44.076Z,14.95
2018-01-15T17:33:11.697Z,15.85
2018-01-15T17:35:39.270Z,14.48
2018-01-15T17:38:06.766Z,14.87
2018-01-15T17:40:34.328Z,17.57
2018-01-15T17:43:01.830Z,15.57
2018-01-15T17:45:29.441Z,15.67
2018-01-15T17:47:56.977Z,13.87
2018-01-15T17:50:25.352Z,18.37
2018-01-15T17:52:53.749Z,14.90
2018-01-15T17:55:21.307Z,15.53
2018-01-15T17:57:49.114Z,14.83
2018-01-15T18:00:16.626Z,15.20
2018-01-15T18:02:44.657Z,15.45
2018-01-15T18:05:12.262Z,14.75
2018-01-15T18:07:39.724Z,15.67
2018-01-15T18:10:07.234Z,17.03
2018-01-15T18:12:34.680Z,15.18
2018-01-15T18:15:02.145Z,16.35
2018-01-15T18:17:29.625Z,16.00
2018-01-15T18:19:58.776Z,16.45
2018-01-15T18:22:26.372Z,16.17
2018-01-15T18:24:53.840Z,14.93
2018-01-15T18:27:22.150Z,16.30
2018-01-15T18:29:49.628Z,16.63
2018-01-15T18:32:18.508Z,15.85
2018-01-15T18:34:46.025Z,15.10
2018-01-15T18:37:14.266Z,15.53
2018-01-15T18:39:42.053Z,15.45
2018-01-15T18:42:10.305Z,16.58
2018-01-15T18:44:37.757Z,15.10
2018-01-15T18:47:05.216Z,14.68
2018-01-15T18:49:32.735Z,16.12
2018-01-15T18:52:00.179Z,15.93
2018-01-15T18:54:27.808Z,15.85
2018-01-15T18:56:56.101Z,15.40
2018-01-15T18:59:23.589Z,13.87
2018-01-15T19:01:51.031Z,16.37
2018-01-15T19:04:18.553Z,16.75
2018-01-15T19:06:46.026Z,15.07
2018-01-15T19:09:15.538Z,15.60
2018-01-15T19:11:43.010Z,15.70
2018-01-15T19:14:10.479Z,15.88
2018-01-15T19:16:37.948Z,16.40
2018-01-15T19:19:05.438Z,15.37
2018-01-15T19:21:32.903Z,16.90
2018-01-15T19:24:00.368Z,16.40
2018-01-15T19:26:29.589Z,15.97
2018-01-15T19:28:57.248Z,15.90
2018-01-15T19:31:24.732Z,15.35
2018-01-15T19:33:52.201Z,15.64
2018-01-15T19:39:30.236Z,15.25
2018-01-15T19:41:58.169Z,15.43
2018-01-15T19:47:35.951Z,14.48
2018-01-15T19:50:09.051Z,16.17
2018-01-15T19:55:41.001Z,15.00
2018-01-15T19:58:14.215Z,15.20
2018-01-15T20:00:47.553Z,14.13
2018-01-15T20:03:20.703Z,14.77
2018-01-15T20:05:53.820Z,16.33
2018-01-15T20:08:27.682Z,13.57
2018-01-15T20:10:55.806Z,14.37
2018-01-15T20:13:23.302Z,14.23
2018-01-15T20:15:50.740Z,16.30
2018-01-15T20:18:18.210Z,13.43
2018-01-15T20:20:46.496Z,15.10
2018-01-15T20:23:13.998Z,20.35
2018-01-15T20:25:41.806Z,15.83
2018-01-15T20:28:09.309Z,14.70
2018-01-15T20:30:37.596Z,14.90
2018-01-15T20:33:10.209Z,14.40
2018-01-15T20:35:37.908Z,14.90
2018-01-15T20:38:06.345Z,13.60
2018-01-15T20:40:33.793Z,14.00
2018-01-15T20:43:01.252Z,13.10
2018-01-15T20:45:28.819Z,14.30
2018-01-15T20:47:56.262Z,14.50
2018-01-15T20:50:23.789Z,14.73
2018-01-15T20:52:52.002Z,13.23
2018-01-15T20:55:20.773Z,15.82
2018-01-15T20:57:48.321Z,13.77
2018-01-15T21:00:16.573Z,15.27
2018-01-15T21:02:48.976Z,13.63
2018-01-15T21:05:16.463Z,12.10
2018-01-15T21:07:43.916Z,13.37
2018-01-15T21:10:11.408Z,14.60
2018-01-15T21:12:39.052Z,14.20
2018-01-15T21:15:06.536Z,14.07
2018-01-15T21:17:41.196Z,11.98
2018-01-15T21:20:08.810Z,12.73
2018-01-15T21:22:36.394Z,12.37
2018-01-15T21:25:05.592Z,13.50
2018-01-15T21:27:33.093Z,11.20
2018-01-15T21:30:00.539Z,13.43
2018-01-15T21:32:31.663Z,14.70
2018-01-15T21:34:59.984Z,12.35
2018-01-15T21:37:27.442Z,12.25
2018-01-15T21:39:54.983Z,10.90
2018-01-15T21:42:22.468Z,12.27
2018-01-15T21:44:49.998Z,10.77
2018-01-15T21:47:17.559Z,11.80
2018-01-15T21:49:45.075Z,11.57
2018-01-15T21:52:12.851Z,12.67
2018-01-15T21:54:40.381Z,11.00
2018-01-15T21:57:09.265Z,11.82
2018-01-15T21:59:37.087Z,12.15
2018-01-15T22:02:04.704Z,12.73
2018-01-15T22:04:32.971Z,10.93
2018-01-15T22:07:00.588Z,11.45
2018-01-15T22:09:28.070Z,10.63
2018-01-15T22:11:55.900Z,10.80
2018-01-15T22:14:23.336Z,12.30
2018-01-15T22:16:50.849Z,12.20
2018-01-15T22:19:22.904Z,11.30
2018-01-15T22:21:50.368Z,12.63
2018-01-15T22:24:17.864Z,11.40
2018-01-15T22:26:46.182Z,12.90
2018-01-15T22:29:13.757Z,11.07
2018-01-15T22:31:41.992Z,9.85
2018-01-15T22:34:09.432Z,9.68
2018-01-15T22:36:36.914Z,9.43
2018-01-15T22:39:04.421Z,9.73
2018-01-15T22:41:31.922Z,9.90
2018-01-15T22:44:01.075Z,9.60
2018-01-15T22:46:28.732Z,8.40
2018-01-15T22:48:56.194Z,7.63
2018-01-15T22:51:23.709Z,7.87
2018-01-15T22:53:51.145Z,8.40
2018-01-15T22:56:18.635Z,7.90
2018-01-15T22:58:46.125Z,8.70
2018-01-15T23:01:13.581Z,7.05
2018-01-15T23:03:41.072Z,8.55
2018-01-15T23:06:09.037Z,6.53
2018-01-15T23:08:36.496Z,6.80
2018-01-15T23:11:04.005Z,6.70
2018-01-15T23:13:31.553Z,8.40
2018-01-15T23:15:59.277Z,9.63
2018-01-15T23:18:26.794Z,7.37
2018-01-15T23:20:54.258Z,7.53
2018-01-15T23:23:21.728Z,8.43
2018-01-15T23:25:49.192Z,7.32
2018-01-15T23:28:16.640Z,7.82
2018-01-15T23:30:44.197Z,7.57
2018-01-15T23:33:12.107Z,7.94
2018-01-15T23:35:39.562Z,8.10
2018-01-15T23:38:07.029Z,7.33
2018-01-15T23:40:34.507Z,7.05
2018-01-15T23:43:01.942Z,6.60
2018-01-15T23:45:29.389Z,7.30
2018-01-15T23:47:56.869Z,8.20
2018-01-15T23:50:28.562Z,6.67
2018-01-15T23:52:56.337Z,6.30
2018-01-15T23:55:23.852Z,6.17
2018-01-15T23:57:51.322Z,7.35
